createdAt,value
2022-11-30T00:03:16.945Z,99494.30
2022-11-30T00:08:18.231Z,99487.63
2022-11-30T00:13:26.198Z,99488.15
2022-11-30T00:18:27.691Z,99484.44
2022-11-30T00:23:37.147Z,99483.30
2022-11-30T00:28:39.378Z,99486.23
2022-11-30T00:33:41.108Z,99489.31
2022-11-30T00:38:43.093Z,99490.70
2022-11-30T00:43:44.804Z,99496.20
2022-11-30T00:48:46.107Z,99493.64
2022-11-30T00:53:47.795Z,99502.17
2022-11-30T00:58:48.999Z,99510.71
2022-11-30T01:03:52.638Z,99516.88
2022-11-30T01:08:54.146Z,99512.95
2022-11-30T01:13:57.358Z,99514.98
2022-11-30T01:18:59.230Z,99514.98
2022-11-30T01:24:00.400Z,99517.38
2022-11-30T01:29:02.176Z,99516.52
2022-11-30T01:34:03.741Z,99505.23
2022-11-30T01:39:08.837Z,99507.10
2022-11-30T01:44:19.765Z,99508.80
2022-11-30T01:49:38.859Z,99510.31
2022-11-30T01:54:59.277Z,99512.55
2022-11-30T02:00:03.625Z,99508.62
2022-11-30T02:05:17.568Z,99510.33
2022-11-30T02:10:24.223Z,99511.02
2022-11-30T02:15:31.474Z,99513.76
2022-11-30T02:20:59.143Z,99517.51
2022-11-30T02:26:09.208Z,99513.93
2022-11-30T02:31:16.275Z,99503.84
2022-11-30T02:36:19.629Z,99505.88
2022-11-30T02:41:20.835Z,99504.70
2022-11-30T02:46:29.735Z,99505.57
2022-11-30T02:51:33.387Z,99511.18
2022-11-30T02:56:34.720Z,99513.88
2022-11-30T03:01:36.796Z,99513.05
2022-11-30T03:06:38.017Z,99518.70
2022-11-30T03:11:39.219Z,99515.11
2022-11-30T03:16:40.435Z,99522.29
2022-11-30T03:21:41.548Z,99537.31
2022-11-30T03:26:42.697Z,99545.54
2022-11-30T03:31:43.972Z,99549.81
2022-11-30T03:36:45.120Z,99551.53
2022-11-30T03:41:46.492Z,99547.26
2022-11-30T03:46:47.799Z,99549.65
2022-11-30T03:51:49.080Z,99545.73
2022-11-30T03:56:50.243Z,99549.33
2022-11-30T04:01:51.479Z,99554.45
2022-11-30T04:06:52.699Z,99557.52
2022-11-30T04:11:53.844Z,99561.46
2022-11-30T04:16:55.119Z,99561.45
2022-11-30T04:21:56.287Z,99560.23
2022-11-30T04:26:57.546Z,99559.55
2022-11-30T04:31:59.104Z,99560.77
2022-11-30T04:37:00.668Z,99565.39
2022-11-30T04:42:01.950Z,99565.91
2022-11-30T04:47:03.213Z,99565.39
2022-11-30T04:52:04.356Z,99565.90
2022-11-30T04:57:05.930Z,99569.84
2022-11-30T05:02:07.315Z,99572.39
2022-11-30T05:07:08.885Z,99577.34
2022-11-30T05:12:10.041Z,99581.45
2022-11-30T05:17:11.204Z,99581.62
2022-11-30T05:22:12.321Z,99585.89
2022-11-30T05:27:16.717Z,99593.39
2022-11-30T05:32:22.259Z,99592.72
2022-11-30T05:37:23.419Z,99594.77
2022-11-30T05:42:25.021Z,99594.10
2022-11-30T05:47:26.143Z,99592.71
2022-11-30T05:52:27.311Z,99598.18
2022-11-30T05:57:28.472Z,99593.41
2022-11-30T06:02:29.934Z,99599.04
2022-11-30T06:07:31.250Z,99597.33
2022-11-30T06:12:32.473Z,99595.45
2022-11-30T06:17:33.829Z,99597.33
2022-11-30T06:22:34.957Z,99605.88
2022-11-30T06:27:36.146Z,99609.45
2022-11-30T06:32:37.307Z,99609.81
2022-11-30T06:37:38.539Z,99613.73
2022-11-30T06:42:39.740Z,99614.92
2022-11-30T06:47:41.098Z,99618.67
2022-11-30T06:52:42.185Z,99623.81
2022-11-30T06:57:43.717Z,99628.93
2022-11-30T07:02:44.909Z,99630.81
2022-11-30T07:07:46.009Z,99630.46
2022-11-30T07:12:47.421Z,99630.48
2022-11-30T07:17:48.475Z,99632.53
2022-11-30T07:22:49.842Z,99631.66
2022-11-30T07:27:50.936Z,99631.16
2022-11-30T07:32:52.056Z,99622.61
2022-11-30T07:37:53.113Z,99626.02
2022-11-30T07:42:55.203Z,99628.60
2022-11-30T07:47:58.406Z,99632.36
2022-11-30T07:52:59.563Z,99633.39
2022-11-30T07:58:00.657Z,99624.50
2022-11-30T08:03:02.092Z,99622.96
2022-11-30T08:08:03.604Z,99621.24
2022-11-30T08:13:04.762Z,99620.73
2022-11-30T08:18:06.602Z,99619.55
2022-11-30T08:23:07.711Z,99630.31
2022-11-30T08:28:09.016Z,99637.14
2022-11-30T08:33:10.283Z,99636.80
2022-11-30T08:38:11.556Z,99642.42
2022-11-30T08:43:12.610Z,99643.13
2022-11-30T08:48:13.665Z,99648.93
2022-11-30T08:53:14.928Z,99650.80
2022-11-30T08:58:16.295Z,99657.64
2022-11-30T09:03:17.455Z,99657.27
2022-11-30T09:08:19.173Z,99656.91
2022-11-30T09:13:20.290Z,99664.92
2022-11-30T09:18:21.552Z,99661.81
2022-11-30T09:23:22.625Z,99660.92
2022-11-30T09:28:24.533Z,99662.61
2022-11-30T09:33:25.626Z,99660.38
2022-11-30T09:38:27.561Z,99657.79
2022-11-30T09:43:37.693Z,99654.89
2022-11-30T09:49:01.484Z,99657.86
2022-11-30T09:54:09.196Z,99660.25
2022-11-30T09:59:19.365Z,99656.27
2022-11-30T10:04:24.637Z,99660.51
2022-11-30T10:09:34.793Z,99661.35
2022-11-30T10:15:03.752Z,99663.91
2022-11-30T10:20:27.861Z,99659.27
2022-11-30T10:25:39.921Z,99657.34
2022-11-30T10:30:41.087Z,99656.63
2022-11-30T10:35:53.971Z,99651.13
2022-11-30T10:41:09.647Z,99643.84
2022-11-30T10:46:23.285Z,99637.80
2022-11-30T10:51:26.534Z,99639.52
2022-11-30T10:56:27.739Z,99641.23
2022-11-30T11:01:33.548Z,99648.75
2022-11-30T11:06:36.091Z,99642.34
2022-11-30T11:11:38.909Z,99648.33
2022-11-30T11:16:52.969Z,99648.10
2022-11-30T11:21:54.165Z,99647.25
2022-11-30T11:26:56.538Z,99645.52
2022-11-30T11:32:06.890Z,99642.23
2022-11-30T11:37:19.724Z,99640.40
2022-11-30T11:42:22.505Z,99642.06
2022-11-30T11:47:28.287Z,99641.77
2022-11-30T11:52:29.455Z,99636.52
2022-11-30T11:57:47.920Z,99632.17
2022-11-30T12:02:56.782Z,99630.85
2022-11-30T12:08:28.419Z,99634.34
2022-11-30T12:13:37.278Z,99637.64
2022-11-30T12:19:17.383Z,99638.54
2022-11-30T12:25:08.639Z,99646.55
2022-11-30T12:30:21.604Z,99641.48
2022-11-30T12:35:56.477Z,99641.84
2022-11-30T12:41:16.411Z,99638.90
2022-11-30T12:46:28.822Z,99635.41
2022-11-30T12:51:53.734Z,99633.80
2022-11-30T12:57:00.926Z,99634.88
2022-11-30T13:02:33.234Z,99636.84
2022-11-30T13:07:44.578Z,99634.66
2022-11-30T13:12:50.609Z,99632.03
2022-11-30T13:17:53.569Z,99636.16
2022-11-30T13:23:07.748Z,99633.07
2022-11-30T13:28:38.607Z,99631.86
2022-11-30T13:33:48.478Z,99628.90
2022-11-30T13:39:09.193Z,99631.73
2022-11-30T13:44:32.378Z,99632.02
2022-11-30T13:49:36.087Z,99637.81
2022-11-30T13:54:44.215Z,99638.88
2022-11-30T13:59:48.874Z,99637.45
2022-11-30T14:04:50.215Z,99639.70
2022-11-30T14:09:57.639Z,99642.43
2022-11-30T14:15:00.559Z,99642.29
2022-11-30T14:20:18.479Z,99643.27
2022-11-30T14:25:20.671Z,99649.98
2022-11-30T14:30:23.596Z,99645.85
2022-11-30T14:35:29.635Z,99646.03
2022-11-30T14:40:31.266Z,99645.33
2022-11-30T14:45:34.420Z,99641.23
2022-11-30T14:50:37.539Z,99638.36
2022-11-30T14:56:19.496Z,99643.36
2022-11-30T15:01:24.456Z,99645.29
2022-11-30T15:06:31.595Z,99651.29
2022-11-30T15:11:32.756Z,99653.33
2022-11-30T15:16:34.171Z,99660.52
2022-11-30T15:21:35.390Z,99658.30
2022-11-30T15:26:57.331Z,99658.48
2022-11-30T15:32:01.319Z,99662.92
2022-11-30T15:37:02.879Z,99669.94
2022-11-30T15:42:05.216Z,99676.09
2022-11-30T15:47:23.584Z,99680.36
2022-11-30T15:52:27.625Z,99687.36
2022-11-30T15:57:58.772Z,99699.17
2022-11-30T16:03:08.300Z,99705.67
2022-11-30T16:08:17.558Z,99703.96
2022-11-30T16:13:21.262Z,99705.34
2022-11-30T16:18:25.685Z,99709.09
2022-11-30T16:23:27.894Z,99712.34
2022-11-30T16:28:28.960Z,99719.17
2022-11-30T16:33:30.144Z,99719.86
2022-11-30T16:38:32.231Z,99718.32
2022-11-30T16:43:33.279Z,99716.27
2022-11-30T16:48:35.260Z,99718.84
2022-11-30T16:53:36.422Z,99716.95
2022-11-30T16:58:37.587Z,99725.66
2022-11-30T17:03:39.562Z,99726.69
2022-11-30T17:08:41.356Z,99724.98
2022-11-30T17:13:42.427Z,99726.87
2022-11-30T17:18:43.959Z,99726.86
2022-11-30T17:23:45.243Z,99726.19
2022-11-30T17:28:46.372Z,99727.38
2022-11-30T17:33:48.597Z,99730.30
2022-11-30T17:38:50.143Z,99732.86
2022-11-30T17:43:51.712Z,99729.78
2022-11-30T17:48:54.311Z,99726.71
2022-11-30T17:53:56.079Z,99727.05
2022-11-30T17:58:58.956Z,99728.76
2022-11-30T18:04:00.290Z,99734.58
2022-11-30T18:09:01.421Z,99737.13
2022-11-30T18:14:03.385Z,99741.73
2022-11-30T18:19:11.506Z,99739.17
2022-11-30T18:24:12.980Z,99741.73
2022-11-30T18:29:14.046Z,99741.73
2022-11-30T18:34:15.151Z,99739.16
2022-11-30T18:39:16.352Z,99739.84
2022-11-30T18:44:17.515Z,99743.44
2022-11-30T18:49:20.567Z,99744.48
2022-11-30T18:54:21.883Z,99743.80
2022-11-30T18:59:22.979Z,99749.10
2022-11-30T19:04:25.330Z,99749.62
2022-11-30T19:09:26.529Z,99747.56
2022-11-30T19:14:27.635Z,99749.79
2022-11-30T19:19:28.766Z,99753.04
2022-11-30T19:24:29.841Z,99749.79
2022-11-30T19:29:30.904Z,99754.41
2022-11-30T19:34:32.088Z,99755.60
2022-11-30T19:39:33.247Z,99757.65
2022-11-30T19:44:34.511Z,99760.55
2022-11-30T19:49:35.671Z,99758.85
2022-11-30T19:54:36.943Z,99759.18
2022-11-30T19:59:38.087Z,99755.25
2022-11-30T20:04:39.468Z,99761.41
2022-11-30T20:09:40.576Z,99764.13
2022-11-30T20:14:41.678Z,99761.92
2022-11-30T20:19:42.943Z,99757.13
2022-11-30T20:24:44.104Z,99761.05
2022-11-30T20:29:55.095Z,99758.30
2022-11-30T20:34:56.150Z,99756.09
2022-11-30T20:39:57.412Z,99759.85
2022-11-30T20:44:59.296Z,99760.86
2022-11-30T20:50:00.962Z,99761.38
2022-11-30T20:55:02.124Z,99763.43
2022-11-30T21:00:06.497Z,99764.46
2022-11-30T21:05:11.512Z,99760.52
2022-11-30T21:10:12.983Z,99759.48
2022-11-30T21:15:14.140Z,99757.94
2022-11-30T21:20:15.406Z,99757.42
2022-11-30T21:25:17.076Z,99752.81
2022-11-30T21:30:18.949Z,99751.60
2022-11-30T21:35:20.112Z,99745.61
2022-11-30T21:40:21.162Z,99744.77
2022-11-30T21:45:22.433Z,99743.56
2022-11-30T21:50:27.174Z,99740.49
2022-11-30T21:55:28.548Z,99743.05
2022-11-30T22:00:29.706Z,99740.30
2022-11-30T22:05:30.869Z,99741.98
2022-11-30T22:10:32.080Z,99741.98
2022-11-30T22:15:33.347Z,99742.66
2022-11-30T22:20:34.443Z,99745.73
2022-11-30T22:25:35.610Z,99747.11
2022-11-30T22:30:36.872Z,99748.66
2022-11-30T22:35:38.082Z,99752.77
2022-11-30T22:40:39.151Z,99752.77
2022-11-30T22:45:40.256Z,99756.86
2022-11-30T22:50:41.429Z,99758.06
2022-11-30T22:55:47.818Z,99758.59
2022-11-30T23:00:49.628Z,99752.79
2022-11-30T23:05:51.047Z,99755.54
2022-11-30T23:10:56.865Z,99749.04
2022-11-30T23:15:59.262Z,99744.56
2022-11-30T23:21:06.879Z,99748.84
2022-11-30T23:26:12.909Z,99746.79
2022-11-30T23:31:33.982Z,99744.55
2022-11-30T23:36:37.423Z,99743.71
2022-11-30T23:41:39.406Z,99743.38
2022-11-30T23:46:41.011Z,99739.27
2022-11-30T23:51:42.571Z,99734.66
2022-11-30T23:56:43.683Z,99735.02
